sensor_id;sensor_type;location;lat;lon;timestamp;P1;durP1;ratioP1;P2;durP2;ratioP2
45548;SDS011;31270;48.328;10.096;2024-02-21T00:00:40;16.20;;;6.73;;
45548;SDS011;31270;48.328;10.096;2024-02-21T00:03:06;13.23;;;5.70;;
45548;SDS011;31270;48.328;10.096;2024-02-21T00:05:32;11.23;;;5.37;;
45548;SDS011;31270;48.328;10.096;2024-02-21T00:07:58;9.90;;;5.70;;
45548;SDS011;31270;48.328;10.096;2024-02-21T00:10:24;10.10;;;6.13;;
45548;SDS011;31270;48.328;10.096;2024-02-21T00:12:50;13.27;;;6.17;;
45548;SDS011;31270;48.328;10.096;2024-02-21T00:15:16;7.40;;;5.57;;
45548;SDS011;31270;48.328;10.096;2024-02-21T00:17:43;13.90;;;6.50;;
45548;SDS011;31270;48.328;10.096;2024-02-21T00:20:09;10.37;;;5.57;;
45548;SDS011;31270;48.328;10.096;2024-02-21T00:22:35;15.63;;;6.07;;
45548;SDS011;31270;48.328;10.096;2024-02-21T00:25:01;11.77;;;5.87;;
45548;SDS011;31270;48.328;10.096;2024-02-21T00:27:27;11.07;;;5.60;;
45548;SDS011;31270;48.328;10.096;2024-02-21T00:29:53;12.80;;;6.10;;
45548;SDS011;31270;48.328;10.096;2024-02-21T00:32:19;12.87;;;5.63;;
45548;SDS011;31270;48.328;10.096;2024-02-21T00:34:45;10.33;;;5.40;;
45548;SDS011;31270;48.328;10.096;2024-02-21T00:37:10;13.10;;;6.33;;
45548;SDS011;31270;48.328;10.096;2024-02-21T00:39:36;10.67;;;6.47;;
45548;SDS011;31270;48.328;10.096;2024-02-21T00:42:02;13.40;;;6.83;;
45548;SDS011;31270;48.328;10.096;2024-02-21T00:44:28;11.03;;;6.13;;
45548;SDS011;31270;48.328;10.096;2024-02-21T00:46:54;12.60;;;6.67;;
45548;SDS011;31270;48.328;10.096;2024-02-21T00:49:19;16.70;;;6.30;;
45548;SDS011;31270;48.328;10.096;2024-02-21T00:51:45;16.27;;;6.70;;
45548;SDS011;31270;48.328;10.096;2024-02-21T00:54:10;11.03;;;6.67;;
45548;SDS011;31270;48.328;10.096;2024-02-21T00:56:36;13.43;;;6.30;;
45548;SDS011;31270;48.328;10.096;2024-02-21T00:59:02;11.97;;;6.20;;
45548;SDS011;31270;48.328;10.096;2024-02-21T01:01:27;13.17;;;6.83;;
45548;SDS011;31270;48.328;10.096;2024-02-21T01:03:53;17.43;;;6.63;;
45548;SDS011;31270;48.328;10.096;2024-02-21T01:06:19;15.60;;;7.17;;
45548;SDS011;31270;48.328;10.096;2024-02-21T01:08:48;12.67;;;6.27;;
45548;SDS011;31270;48.328;10.096;2024-02-21T01:11:14;14.00;;;6.90;;
45548;SDS011;31270;48.328;10.096;2024-02-21T01:13:41;11.93;;;6.73;;
45548;SDS011;31270;48.328;10.096;2024-02-21T01:16:06;11.43;;;6.73;;
45548;SDS011;31270;48.328;10.096;2024-02-21T01:18:38;11.77;;;6.30;;
45548;SDS011;31270;48.328;10.096;2024-02-21T01:21:04;10.60;;;5.73;;
45548;SDS011;31270;48.328;10.096;2024-02-21T01:23:36;15.27;;;6.70;;
45548;SDS011;31270;48.328;10.096;2024-02-21T01:26:02;14.77;;;6.43;;
45548;SDS011;31270;48.328;10.096;2024-02-21T01:28:29;11.23;;;6.40;;
45548;SDS011;31270;48.328;10.096;2024-02-21T01:30:56;11.67;;;6.93;;
45548;SDS011;31270;48.328;10.096;2024-02-21T01:33:22;13.17;;;6.73;;
45548;SDS011;31270;48.328;10.096;2024-02-21T01:35:47;13.07;;;6.70;;
45548;SDS011;31270;48.328;10.096;2024-02-21T01:38:14;14.47;;;6.03;;
45548;SDS011;31270;48.328;10.096;2024-02-21T01:40:40;14.30;;;6.23;;
45548;SDS011;31270;48.328;10.096;2024-02-21T01:43:14;13.17;;;6.27;;
45548;SDS011;31270;48.328;10.096;2024-02-21T01:45:51;10.70;;;6.93;;
45548;SDS011;31270;48.328;10.096;2024-02-21T01:48:18;11.90;;;6.37;;
45548;SDS011;31270;48.328;10.096;2024-02-21T01:50:44;10.63;;;5.97;;
45548;SDS011;31270;48.328;10.096;2024-02-21T01:53:20;8.60;;;6.57;;
45548;SDS011;31270;48.328;10.096;2024-02-21T01:55:48;11.57;;;7.37;;
45548;SDS011;31270;48.328;10.096;2024-02-21T01:58:14;11.03;;;6.23;;
45548;SDS011;31270;48.328;10.096;2024-02-21T02:00:44;13.00;;;7.33;;
45548;SDS011;31270;48.328;10.096;2024-02-21T02:03:12;13.57;;;6.20;;
45548;SDS011;31270;48.328;10.096;2024-02-21T02:08:14;9.90;;;6.57;;
45548;SDS011;31270;48.328;10.096;2024-02-21T02:10:41;11.10;;;6.57;;
45548;SDS011;31270;48.328;10.096;2024-02-21T02:13:07;15.67;;;7.37;;
45548;SDS011;31270;48.328;10.096;2024-02-21T02:15:42;12.97;;;6.67;;
45548;SDS011;31270;48.328;10.096;2024-02-21T02:18:10;16.13;;;7.20;;
45548;SDS011;31270;48.328;10.096;2024-02-21T02:20:37;19.97;;;6.57;;
45548;SDS011;31270;48.328;10.096;2024-02-21T02:25:35;14.50;;;7.10;;
45548;SDS011;31270;48.328;10.096;2024-02-21T02:28:02;13.40;;;6.67;;
45548;SDS011;31270;48.328;10.096;2024-02-21T02:30:32;13.70;;;7.03;;
45548;SDS011;31270;48.328;10.096;2024-02-21T02:33:04;12.70;;;6.47;;
45548;SDS011;31270;48.328;10.096;2024-02-21T02:35:30;13.53;;;7.03;;
45548;SDS011;31270;48.328;10.096;2024-02-21T02:37:56;16.10;;;7.17;;
45548;SDS011;31270;48.328;10.096;2024-02-21T02:40:22;11.40;;;6.53;;
45548;SDS011;31270;48.328;10.096;2024-02-21T02:42:48;12.43;;;7.07;;
45548;SDS011;31270;48.328;10.096;2024-02-21T02:45:17;15.47;;;8.17;;
45548;SDS011;31270;48.328;10.096;2024-02-21T02:47:46;11.37;;;7.23;;
45548;SDS011;31270;48.328;10.096;2024-02-21T02:50:12;12.80;;;6.93;;
45548;SDS011;31270;48.328;10.096;2024-02-21T02:52:38;14.73;;;7.07;;
45548;SDS011;31270;48.328;10.096;2024-02-21T02:55:04;14.57;;;7.77;;
45548;SDS011;31270;48.328;10.096;2024-02-21T02:57:31;13.03;;;6.93;;
45548;SDS011;31270;48.328;10.096;2024-02-21T02:59:57;14.73;;;6.67;;
45548;SDS011;31270;48.328;10.096;2024-02-21T03:02:22;13.97;;;6.70;;
45548;SDS011;31270;48.328;10.096;2024-02-21T03:04:48;13.53;;;6.87;;
45548;SDS011;31270;48.328;10.096;2024-02-21T03:07:14;10.00;;;6.10;;
45548;SDS011;31270;48.328;10.096;2024-02-21T03:09:40;16.57;;;7.00;;
45548;SDS011;31270;48.328;10.096;2024-02-21T03:12:08;8.73;;;5.80;;
45548;SDS011;31270;48.328;10.096;2024-02-21T03:14:34;10.27;;;6.10;;
45548;SDS011;31270;48.328;10.096;2024-02-21T03:17:00;12.00;;;5.87;;
45548;SDS011;31270;48.328;10.096;2024-02-21T03:19:26;10.80;;;6.20;;
45548;SDS011;31270;48.328;10.096;2024-02-21T03:21:53;8.83;;;5.90;;
45548;SDS011;31270;48.328;10.096;2024-02-21T03:24:19;11.13;;;5.90;;
45548;SDS011;31270;48.328;10.096;2024-02-21T03:26:46;14.13;;;5.83;;
45548;SDS011;31270;48.328;10.096;2024-02-21T03:29:16;12.10;;;5.87;;
45548;SDS011;31270;48.328;10.096;2024-02-21T03:31:42;12.53;;;5.83;;
45548;SDS011;31270;48.328;10.096;2024-02-21T03:34:09;12.77;;;6.40;;
45548;SDS011;31270;48.328;10.096;2024-02-21T03:36:36;10.53;;;5.77;;
45548;SDS011;31270;48.328;10.096;2024-02-21T03:39:01;9.70;;;5.77;;
45548;SDS011;31270;48.328;10.096;2024-02-21T03:41:27;16.10;;;5.97;;
45548;SDS011;31270;48.328;10.096;2024-02-21T03:43:54;9.07;;;5.87;;
45548;SDS011;31270;48.328;10.096;2024-02-21T03:46:19;11.13;;;5.93;;
45548;SDS011;31270;48.328;10.096;2024-02-21T03:48:45;12.67;;;6.07;;
45548;SDS011;31270;48.328;10.096;2024-02-21T03:51:11;10.33;;;6.33;;
45548;SDS011;31270;48.328;10.096;2024-02-21T03:53:36;13.67;;;5.77;;
45548;SDS011;31270;48.328;10.096;2024-02-21T03:56:02;10.90;;;6.33;;
45548;SDS011;31270;48.328;10.096;2024-02-21T03:58:29;14.50;;;6.77;;
45548;SDS011;31270;48.328;10.096;2024-02-21T04:00:55;11.77;;;5.77;;
45548;SDS011;31270;48.328;10.096;2024-02-21T04:03:21;12.20;;;5.73;;
45548;SDS011;31270;48.328;10.096;2024-02-21T04:05:46;10.93;;;5.77;;
45548;SDS011;31270;48.328;10.096;2024-02-21T04:08:13;13.70;;;5.97;;
45548;SDS011;31270;48.328;10.096;2024-02-21T04:10:39;12.83;;;6.30;;
45548;SDS011;31270;48.328;10.096;2024-02-21T04:13:06;13.33;;;5.90;;
45548;SDS011;31270;48.328;10.096;2024-02-21T04:15:32;11.53;;;5.77;;
45548;SDS011;31270;48.328;10.096;2024-02-21T04:17:57;13.10;;;5.77;;
45548;SDS011;31270;48.328;10.096;2024-02-21T04:20:23;10.93;;;6.43;;
45548;SDS011;31270;48.328;10.096;2024-02-21T04:22:49;11.47;;;5.80;;
45548;SDS011;31270;48.328;10.096;2024-02-21T04:25:14;9.33;;;6.17;;
45548;SDS011;31270;48.328;10.096;2024-02-21T04:27:40;12.40;;;6.13;;
45548;SDS011;31270;48.328;10.096;2024-02-21T04:30:06;12.07;;;6.03;;
45548;SDS011;31270;48.328;10.096;2024-02-21T04:32:32;7.80;;;5.70;;
45548;SDS011;31270;48.328;10.096;2024-02-21T04:34:58;11.93;;;5.43;;
45548;SDS011;31270;48.328;10.096;2024-02-21T04:37:24;8.97;;;5.93;;
45548;SDS011;31270;48.328;10.096;2024-02-21T04:39:50;9.43;;;6.33;;
45548;SDS011;31270;48.328;10.096;2024-02-21T04:42:16;13.10;;;6.13;;
45548;SDS011;31270;48.328;10.096;2024-02-21T04:44:42;11.83;;;5.93;;
45548;SDS011;31270;48.328;10.096;2024-02-21T04:47:07;10.33;;;5.63;;
45548;SDS011;31270;48.328;10.096;2024-02-21T04:49:33;9.40;;;5.77;;
45548;SDS011;31270;48.328;10.096;2024-02-21T04:51:59;9.77;;;6.20;;
45548;SDS011;31270;48.328;10.096;2024-02-21T04:54:25;17.30;;;8.03;;
45548;SDS011;31270;48.328;10.096;2024-02-21T04:56:51;12.03;;;7.37;;
45548;SDS011;31270;48.328;10.096;2024-02-21T04:59:17;13.83;;;6.77;;
45548;SDS011;31270;48.328;10.096;2024-02-21T05:01:42;7.07;;;5.77;;
45548;SDS011;31270;48.328;10.096;2024-02-21T05:04:08;10.47;;;5.60;;
45548;SDS011;31270;48.328;10.096;2024-02-21T05:06:37;9.87;;;5.67;;
45548;SDS011;31270;48.328;10.096;2024-02-21T05:09:04;11.37;;;6.03;;
45548;SDS011;31270;48.328;10.096;2024-02-21T05:11:30;10.07;;;5.70;;
45548;SDS011;31270;48.328;10.096;2024-02-21T05:13:56;8.47;;;4.87;;
45548;SDS011;31270;48.328;10.096;2024-02-21T05:16:22;10.33;;;5.00;;
45548;SDS011;31270;48.328;10.096;2024-02-21T05:18:48;10.57;;;5.13;;
45548;SDS011;31270;48.328;10.096;2024-02-21T05:21:13;8.90;;;5.67;;
45548;SDS011;31270;48.328;10.096;2024-02-21T05:23:39;9.60;;;4.80;;
45548;SDS011;31270;48.328;10.096;2024-02-21T05:26:05;9.03;;;5.20;;
45548;SDS011;31270;48.328;10.096;2024-02-21T05:28:31;8.70;;;4.70;;
45548;SDS011;31270;48.328;10.096;2024-02-21T05:30:57;10.07;;;4.93;;
45548;SDS011;31270;48.328;10.096;2024-02-21T05:33:23;12.87;;;5.17;;
45548;SDS011;31270;48.328;10.096;2024-02-21T05:35:49;9.20;;;4.60;;
45548;SDS011;31270;48.328;10.096;2024-02-21T05:38:15;7.37;;;5.00;;
45548;SDS011;31270;48.328;10.096;2024-02-21T05:40:41;6.03;;;4.40;;
45548;SDS011;31270;48.328;10.096;2024-02-21T05:43:07;7.60;;;4.70;;
45548;SDS011;31270;48.328;10.096;2024-02-21T05:45:33;7.50;;;4.60;;
45548;SDS011;31270;48.328;10.096;2024-02-21T05:47:59;6.37;;;4.03;;
45548;SDS011;31270;48.328;10.096;2024-02-21T05:50:26;10.10;;;4.53;;
45548;SDS011;31270;48.328;10.096;2024-02-21T05:52:56;7.10;;;4.60;;
45548;SDS011;31270;48.328;10.096;2024-02-21T05:55:22;8.40;;;4.13;;
45548;SDS011;31270;48.328;10.096;2024-02-21T05:57:47;7.03;;;4.57;;
45548;SDS011;31270;48.328;10.096;2024-02-21T06:00:14;6.90;;;4.43;;
45548;SDS011;31270;48.328;10.096;2024-02-21T06:02:40;5.77;;;4.03;;
45548;SDS011;31270;48.328;10.096;2024-02-21T06:05:06;6.00;;;4.47;;
45548;SDS011;31270;48.328;10.096;2024-02-21T06:07:33;6.53;;;4.17;;
45548;SDS011;31270;48.328;10.096;2024-02-21T06:09:59;6.90;;;4.43;;
45548;SDS011;31270;48.328;10.096;2024-02-21T06:12:26;7.40;;;4.47;;
45548;SDS011;31270;48.328;10.096;2024-02-21T06:14:52;8.13;;;5.13;;
45548;SDS011;31270;48.328;10.096;2024-02-21T06:17:18;12.20;;;5.53;;
45548;SDS011;31270;48.328;10.096;2024-02-21T06:19:43;6.90;;;4.57;;
45548;SDS011;31270;48.328;10.096;2024-02-21T06:22:12;6.90;;;4.63;;
45548;SDS011;31270;48.328;10.096;2024-02-21T06:24:38;6.37;;;4.80;;
45548;SDS011;31270;48.328;10.096;2024-02-21T06:27:04;9.90;;;5.23;;
45548;SDS011;31270;48.328;10.096;2024-02-21T06:29:31;9.03;;;4.90;;
45548;SDS011;31270;48.328;10.096;2024-02-21T06:31:57;7.77;;;4.77;;
45548;SDS011;31270;48.328;10.096;2024-02-21T06:34:23;6.97;;;4.27;;
45548;SDS011;31270;48.328;10.096;2024-02-21T06:36:49;7.60;;;4.60;;
45548;SDS011;31270;48.328;10.096;2024-02-21T06:39:15;7.10;;;5.10;;
45548;SDS011;31270;48.328;10.096;2024-02-21T06:41:41;8.13;;;5.30;;
45548;SDS011;31270;48.328;10.096;2024-02-21T06:44:07;10.80;;;4.87;;
45548;SDS011;31270;48.328;10.096;2024-02-21T06:46:33;6.50;;;4.73;;
45548;SDS011;31270;48.328;10.096;2024-02-21T06:48:59;8.63;;;5.67;;
45548;SDS011;31270;48.328;10.096;2024-02-21T06:51:25;10.00;;;5.77;;
45548;SDS011;31270;48.328;10.096;2024-02-21T06:53:51;10.07;;;5.63;;
45548;SDS011;31270;48.328;10.096;2024-02-21T06:56:18;7.27;;;4.90;;
45548;SDS011;31270;48.328;10.096;2024-02-21T06:58:44;9.37;;;5.53;;
45548;SDS011;31270;48.328;10.096;2024-02-21T07:01:10;11.73;;;6.07;;
45548;SDS011;31270;48.328;10.096;2024-02-21T07:03:35;14.60;;;7.00;;
45548;SDS011;31270;48.328;10.096;2024-02-21T07:06:01;10.53;;;6.20;;
45548;SDS011;31270;48.328;10.096;2024-02-21T07:08:28;13.07;;;7.20;;
45548;SDS011;31270;48.328;10.096;2024-02-21T07:10:54;10.00;;;5.70;;
45548;SDS011;31270;48.328;10.096;2024-02-21T07:13:19;8.10;;;5.43;;
45548;SDS011;31270;48.328;10.096;2024-02-21T07:15:46;12.23;;;5.50;;
45548;SDS011;31270;48.328;10.096;2024-02-21T07:18:12;9.83;;;5.60;;
45548;SDS011;31270;48.328;10.096;2024-02-21T07:20:38;9.10;;;5.40;;
45548;SDS011;31270;48.328;10.096;2024-02-21T07:23:06;11.67;;;5.53;;
45548;SDS011;31270;48.328;10.096;2024-02-21T07:25:32;10.93;;;5.57;;
45548;SDS011;31270;48.328;10.096;2024-02-21T07:27:58;8.47;;;4.57;;
45548;SDS011;31270;48.328;10.096;2024-02-21T07:30:23;8.97;;;5.33;;
45548;SDS011;31270;48.328;10.096;2024-02-21T07:32:49;8.40;;;4.40;;
45548;SDS011;31270;48.328;10.096;2024-02-21T07:35:16;8.37;;;5.50;;
45548;SDS011;31270;48.328;10.096;2024-02-21T07:37:44;7.23;;;5.10;;
45548;SDS011;31270;48.328;10.096;2024-02-21T07:40:13;7.80;;;5.30;;
45548;SDS011;31270;48.328;10.096;2024-02-21T07:42:40;6.33;;;4.93;;
45548;SDS011;31270;48.328;10.096;2024-02-21T07:45:06;7.27;;;4.67;;
45548;SDS011;31270;48.328;10.096;2024-02-21T07:47:33;9.23;;;4.83;;
45548;SDS011;31270;48.328;10.096;2024-02-21T07:49:58;10.17;;;4.93;;
45548;SDS011;31270;48.328;10.096;2024-02-21T07:52:24;7.33;;;5.17;;
45548;SDS011;31270;48.328;10.096;2024-02-21T07:54:50;6.30;;;4.77;;
45548;SDS011;31270;48.328;10.096;2024-02-21T07:57:15;9.53;;;5.30;;
45548;SDS011;31270;48.328;10.096;2024-02-21T07:59:41;9.70;;;4.97;;
45548;SDS011;31270;48.328;10.096;2024-02-21T08:02:07;9.93;;;5.10;;
45548;SDS011;31270;48.328;10.096;2024-02-21T08:04:33;8.80;;;5.17;;
45548;SDS011;31270;48.328;10.096;2024-02-21T08:06:59;7.67;;;5.57;;
45548;SDS011;31270;48.328;10.096;2024-02-21T08:09:29;6.23;;;4.93;;
45548;SDS011;31270;48.328;10.096;2024-02-21T08:11:55;10.17;;;5.00;;
45548;SDS011;31270;48.328;10.096;2024-02-21T08:14:21;15.87;;;5.80;;
45548;SDS011;31270;48.328;10.096;2024-02-21T08:16:47;10.23;;;4.63;;
45548;SDS011;31270;48.328;10.096;2024-02-21T08:19:13;9.90;;;4.30;;
45548;SDS011;31270;48.328;10.096;2024-02-21T08:21:40;7.93;;;4.43;;
45548;SDS011;31270;48.328;10.096;2024-02-21T08:24:05;7.53;;;4.53;;
45548;SDS011;31270;48.328;10.096;2024-02-21T08:26:31;7.43;;;5.50;;
45548;SDS011;31270;48.328;10.096;2024-02-21T08:28:57;7.80;;;4.90;;
45548;SDS011;31270;48.328;10.096;2024-02-21T08:31:24;9.30;;;5.20;;
45548;SDS011;31270;48.328;10.096;2024-02-21T08:33:56;7.93;;;4.53;;
45548;SDS011;31270;48.328;10.096;2024-02-21T08:36:27;7.10;;;4.20;;
45548;SDS011;31270;48.328;10.096;2024-02-21T08:38:53;10.63;;;4.77;;
45548;SDS011;31270;48.328;10.096;2024-02-21T08:41:19;9.33;;;4.00;;
45548;SDS011;31270;48.328;10.096;2024-02-21T08:43:46;6.07;;;3.67;;
45548;SDS011;31270;48.328;10.096;2024-02-21T08:46:12;6.63;;;3.70;;
45548;SDS011;31270;48.328;10.096;2024-02-21T08:48:37;7.50;;;4.13;;
45548;SDS011;31270;48.328;10.096;2024-02-21T08:51:03;7.20;;;3.63;;
45548;SDS011;31270;48.328;10.096;2024-02-21T08:53:29;6.47;;;3.43;;
45548;SDS011;31270;48.328;10.096;2024-02-21T08:55:55;6.03;;;3.50;;
45548;SDS011;31270;48.328;10.096;2024-02-21T08:58:20;4.83;;;3.47;;
45548;SDS011;31270;48.328;10.096;2024-02-21T09:00:51;6.30;;;3.33;;
45548;SDS011;31270;48.328;10.096;2024-02-21T09:03:17;5.67;;;3.30;;
45548;SDS011;31270;48.328;10.096;2024-02-21T09:05:44;9.80;;;3.60;;
45548;SDS011;31270;48.328;10.096;2024-02-21T09:08:11;6.77;;;3.33;;
45548;SDS011;31270;48.328;10.096;2024-02-21T09:10:36;5.70;;;3.10;;
45548;SDS011;31270;48.328;10.096;2024-02-21T09:13:02;5.17;;;3.33;;
45548;SDS011;31270;48.328;10.096;2024-02-21T09:15:28;6.63;;;3.10;;
45548;SDS011;31270;48.328;10.096;2024-02-21T09:17:54;10.20;;;3.63;;
45548;SDS011;31270;48.328;10.096;2024-02-21T09:20:20;6.33;;;2.87;;
45548;SDS011;31270;48.328;10.096;2024-02-21T09:22:45;4.00;;;2.67;;
45548;SDS011;31270;48.328;10.096;2024-02-21T09:25:12;5.47;;;2.80;;
45548;SDS011;31270;48.328;10.096;2024-02-21T09:27:39;3.60;;;2.67;;
45548;SDS011;31270;48.328;10.096;2024-02-21T09:30:05;5.07;;;2.60;;
45548;SDS011;31270;48.328;10.096;2024-02-21T09:32:31;3.60;;;2.87;;
45548;SDS011;31270;48.328;10.096;2024-02-21T09:35:00;6.00;;;3.27;;
45548;SDS011;31270;48.328;10.096;2024-02-21T09:37:25;3.67;;;2.70;;
45548;SDS011;31270;48.328;10.096;2024-02-21T09:39:51;6.53;;;2.70;;
45548;SDS011;31270;48.328;10.096;2024-02-21T09:42:21;7.87;;;2.57;;
45548;SDS011;31270;48.328;10.096;2024-02-21T09:44:48;3.80;;;2.57;;
45548;SDS011;31270;48.328;10.096;2024-02-21T09:47:28;4.60;;;2.73;;
45548;SDS011;31270;48.328;10.096;2024-02-21T09:50:04;6.80;;;3.20;;
45548;SDS011;31270;48.328;10.096;2024-02-21T09:52:30;10.47;;;3.63;;
45548;SDS011;31270;48.328;10.096;2024-02-21T09:54:58;5.83;;;2.57;;
45548;SDS011;31270;48.328;10.096;2024-02-21T09:57:25;5.73;;;3.00;;
45548;SDS011;31270;48.328;10.096;2024-02-21T09:59:52;8.10;;;2.90;;
45548;SDS011;31270;48.328;10.096;2024-02-21T10:02:19;5.60;;;2.73;;
45548;SDS011;31270;48.328;10.096;2024-02-21T10:04:45;5.07;;;2.50;;
45548;SDS011;31270;48.328;10.096;2024-02-21T10:07:11;4.73;;;2.57;;
45548;SDS011;31270;48.328;10.096;2024-02-21T10:09:37;6.23;;;2.60;;
45548;SDS011;31270;48.328;10.096;2024-02-21T10:12:10;5.17;;;2.60;;
45548;SDS011;31270;48.328;10.096;2024-02-21T10:14:36;4.40;;;2.60;;
45548;SDS011;31270;48.328;10.096;2024-02-21T10:17:02;4.77;;;2.37;;
45548;SDS011;31270;48.328;10.096;2024-02-21T10:19:30;4.07;;;2.23;;
45548;SDS011;31270;48.328;10.096;2024-02-21T10:24:27;5.13;;;2.77;;
45548;SDS011;31270;48.328;10.096;2024-02-21T10:27:01;5.57;;;2.87;;
45548;SDS011;31270;48.328;10.096;2024-02-21T10:29:28;7.17;;;2.70;;
45548;SDS011;31270;48.328;10.096;2024-02-21T10:34:33;3.70;;;2.37;;
45548;SDS011;31270;48.328;10.096;2024-02-21T10:37:03;3.77;;;2.27;;
45548;SDS011;31270;48.328;10.096;2024-02-21T10:39:33;7.87;;;2.40;;
45548;SDS011;31270;48.328;10.096;2024-02-21T10:42:01;3.97;;;2.60;;
45548;SDS011;31270;48.328;10.096;2024-02-21T10:44:36;3.77;;;2.23;;
45548;SDS011;31270;48.328;10.096;2024-02-21T10:47:10;4.37;;;2.83;;
45548;SDS011;31270;48.328;10.096;2024-02-21T10:49:41;2.93;;;2.20;;
45548;SDS011;31270;48.328;10.096;2024-02-21T10:52:25;5.47;;;2.90;;
45548;SDS011;31270;48.328;10.096;2024-02-21T10:55:10;6.60;;;2.43;;
45548;SDS011;31270;48.328;10.096;2024-02-21T10:57:46;6.07;;;2.30;;
45548;SDS011;31270;48.328;10.096;2024-02-21T11:00:12;3.17;;;2.40;;
45548;SDS011;31270;48.328;10.096;2024-02-21T11:02:42;4.07;;;2.63;;
45548;SDS011;31270;48.328;10.096;2024-02-21T11:05:10;2.57;;;2.27;;
45548;SDS011;31270;48.328;10.096;2024-02-21T11:07:37;4.60;;;2.37;;
45548;SDS011;31270;48.328;10.096;2024-02-21T11:10:03;4.60;;;2.70;;
45548;SDS011;31270;48.328;10.096;2024-02-21T11:12:32;3.90;;;2.40;;
45548;SDS011;31270;48.328;10.096;2024-02-21T11:15:05;5.03;;;2.00;;
45548;SDS011;31270;48.328;10.096;2024-02-21T11:17:31;4.00;;;2.50;;
45548;SDS011;31270;48.328;10.096;2024-02-21T11:19:57;3.60;;;2.13;;
45548;SDS011;31270;48.328;10.096;2024-02-21T11:22:24;3.40;;;2.40;;
45548;SDS011;31270;48.328;10.096;2024-02-21T11:24:54;4.17;;;2.27;;
45548;SDS011;31270;48.328;10.096;2024-02-21T11:27:21;3.03;;;2.00;;
45548;SDS011;31270;48.328;10.096;2024-02-21T11:29:54;3.87;;;1.83;;
45548;SDS011;31270;48.328;10.096;2024-02-21T11:32:21;3.27;;;2.17;;
45548;SDS011;31270;48.328;10.096;2024-02-21T11:34:56;2.70;;;2.00;;
45548;SDS011;31270;48.328;10.096;2024-02-21T11:37:30;3.07;;;2.20;;
45548;SDS011;31270;48.328;10.096;2024-02-21T11:40:01;4.80;;;2.10;;
45548;SDS011;31270;48.328;10.096;2024-02-21T11:42:29;3.00;;;2.10;;
45548;SDS011;31270;48.328;10.096;2024-02-21T11:44:59;4.53;;;2.20;;
45548;SDS011;31270;48.328;10.096;2024-02-21T11:47:25;2.87;;;2.10;;
45548;SDS011;31270;48.328;10.096;2024-02-21T11:49:53;3.80;;;2.03;;
45548;SDS011;31270;48.328;10.096;2024-02-21T11:52:21;4.20;;;2.20;;
45548;SDS011;31270;48.328;10.096;2024-02-21T11:54:49;2.43;;;2.13;;
45548;SDS011;31270;48.328;10.096;2024-02-21T11:57:16;4.80;;;2.20;;
45548;SDS011;31270;48.328;10.096;2024-02-21T11:59:43;3.80;;;2.10;;
45548;SDS011;31270;48.328;10.096;2024-02-21T12:02:09;2.53;;;2.13;;
45548;SDS011;31270;48.328;10.096;2024-02-21T12:04:35;2.40;;;2.20;;
45548;SDS011;31270;48.328;10.096;2024-02-21T12:07:01;6.20;;;2.27;;
45548;SDS011;31270;48.328;10.096;2024-02-21T12:09:29;2.97;;;2.20;;
45548;SDS011;31270;48.328;10.096;2024-02-21T12:11:59;3.43;;;1.90;;
45548;SDS011;31270;48.328;10.096;2024-02-21T12:14:26;2.33;;;2.13;;
45548;SDS011;31270;48.328;10.096;2024-02-21T12:16:53;9.37;;;2.40;;
45548;SDS011;31270;48.328;10.096;2024-02-21T12:19:19;5.07;;;2.47;;
45548;SDS011;31270;48.328;10.096;2024-02-21T12:21:45;3.23;;;2.13;;
45548;SDS011;31270;48.328;10.096;2024-02-21T12:24:15;4.27;;;1.93;;
45548;SDS011;31270;48.328;10.096;2024-02-21T12:26:51;4.83;;;2.30;;
45548;SDS011;31270;48.328;10.096;2024-02-21T12:29:18;5.03;;;2.17;;
45548;SDS011;31270;48.328;10.096;2024-02-21T12:31:44;2.87;;;2.20;;
45548;SDS011;31270;48.328;10.096;2024-02-21T12:34:10;2.03;;;1.83;;
45548;SDS011;31270;48.328;10.096;2024-02-21T12:36:40;2.50;;;2.00;;
45548;SDS011;31270;48.328;10.096;2024-02-21T12:39:11;2.43;;;2.20;;
45548;SDS011;31270;48.328;10.096;2024-02-21T12:41:37;6.23;;;2.50;;
45548;SDS011;31270;48.328;10.096;2024-02-21T12:44:06;2.40;;;2.13;;
45548;SDS011;31270;48.328;10.096;2024-02-21T12:46:35;2.70;;;2.00;;
45548;SDS011;31270;48.328;10.096;2024-02-21T12:49:01;2.80;;;2.13;;
45548;SDS011;31270;48.328;10.096;2024-02-21T12:51:28;5.27;;;1.73;;
45548;SDS011;31270;48.328;10.096;2024-02-21T12:53:54;3.20;;;1.90;;
45548;SDS011;31270;48.328;10.096;2024-02-21T12:56:20;2.90;;;2.03;;
45548;SDS011;31270;48.328;10.096;2024-02-21T12:58:47;2.70;;;1.90;;
45548;SDS011;31270;48.328;10.096;2024-02-21T13:01:13;1.90;;;1.70;;
45548;SDS011;31270;48.328;10.096;2024-02-21T13:03:38;2.20;;;1.67;;
45548;SDS011;31270;48.328;10.096;2024-02-21T13:06:05;1.60;;;1.50;;
45548;SDS011;31270;48.328;10.096;2024-02-21T13:08:33;4.57;;;1.93;;
45548;SDS011;31270;48.328;10.096;2024-02-21T13:11:00;2.10;;;1.40;;
45548;SDS011;31270;48.328;10.096;2024-02-21T13:13:26;1.40;;;1.30;;
45548;SDS011;31270;48.328;10.096;2024-02-21T13:15:52;1.93;;;1.73;;
45548;SDS011;31270;48.328;10.096;2024-02-21T13:18:17;3.70;;;1.60;;
45548;SDS011;31270;48.328;10.096;2024-02-21T13:20:43;2.57;;;1.80;;
45548;SDS011;31270;48.328;10.096;2024-02-21T13:23:08;2.00;;;1.73;;
45548;SDS011;31270;48.328;10.096;2024-02-21T13:25:34;1.60;;;1.50;;
45548;SDS011;31270;48.328;10.096;2024-02-21T13:28:00;2.60;;;1.33;;
45548;SDS011;31270;48.328;10.096;2024-02-21T13:30:25;1.87;;;1.50;;
45548;SDS011;31270;48.328;10.096;2024-02-21T13:32:52;4.83;;;1.50;;
45548;SDS011;31270;48.328;10.096;2024-02-21T13:35:19;1.97;;;1.73;;
45548;SDS011;31270;48.328;10.096;2024-02-21T13:37:45;1.97;;;1.60;;
45548;SDS011;31270;48.328;10.096;2024-02-21T13:40:11;4.73;;;1.70;;
45548;SDS011;31270;48.328;10.096;2024-02-21T13:42:40;2.27;;;1.70;;
45548;SDS011;31270;48.328;10.096;2024-02-21T13:45:06;1.93;;;1.70;;
45548;SDS011;31270;48.328;10.096;2024-02-21T13:47:35;2.53;;;1.80;;
45548;SDS011;31270;48.328;10.096;2024-02-21T13:50:04;1.43;;;1.33;;
45548;SDS011;31270;48.328;10.096;2024-02-21T13:52:34;2.03;;;1.70;;
45548;SDS011;31270;48.328;10.096;2024-02-21T13:55:00;1.70;;;1.60;;
45548;SDS011;31270;48.328;10.096;2024-02-21T13:57:25;2.03;;;1.83;;
45548;SDS011;31270;48.328;10.096;2024-02-21T13:59:51;3.67;;;1.67;;
45548;SDS011;31270;48.328;10.096;2024-02-21T14:02:17;1.93;;;1.57;;
45548;SDS011;31270;48.328;10.096;2024-02-21T14:04:43;3.07;;;1.70;;
45548;SDS011;31270;48.328;10.096;2024-02-21T14:07:11;2.67;;;1.87;;
45548;SDS011;31270;48.328;10.096;2024-02-21T14:09:37;2.33;;;2.10;;
45548;SDS011;31270;48.328;10.096;2024-02-21T14:12:02;2.67;;;1.77;;
45548;SDS011;31270;48.328;10.096;2024-02-21T14:14:32;2.57;;;1.93;;
45548;SDS011;31270;48.328;10.096;2024-02-21T14:16:59;1.90;;;1.77;;
45548;SDS011;31270;48.328;10.096;2024-02-21T14:19:25;2.80;;;1.73;;
45548;SDS011;31270;48.328;10.096;2024-02-21T14:21:51;3.87;;;1.67;;
45548;SDS011;31270;48.328;10.096;2024-02-21T14:24:18;1.90;;;1.60;;
45548;SDS011;31270;48.328;10.096;2024-02-21T14:26:43;3.03;;;1.90;;
45548;SDS011;31270;48.328;10.096;2024-02-21T14:29:09;3.37;;;1.83;;
45548;SDS011;31270;48.328;10.096;2024-02-21T14:31:35;3.43;;;2.30;;
45548;SDS011;31270;48.328;10.096;2024-02-21T14:34:00;4.00;;;2.23;;
45548;SDS011;31270;48.328;10.096;2024-02-21T14:36:27;2.53;;;2.20;;